createdAt,value
2019-02-06T00:02:11.393Z,90.01
2019-02-06T00:05:18.444Z,89.94
2019-02-06T00:08:25.303Z,89.88
2019-02-06T00:11:35.008Z,90.05
2019-02-06T00:14:40.588Z,89.33
2019-02-06T00:17:47.868Z,89.00
2019-02-06T00:20:54.699Z,89.95
2019-02-06T00:24:00.955Z,90.00
2019-02-06T00:27:07.755Z,89.11
2019-02-06T00:30:14.860Z,89.04
2019-02-06T00:33:21.353Z,89.72
2019-02-06T00:36:27.979Z,89.45
2019-02-06T00:39:34.949Z,89.63
2019-02-06T00:42:41.693Z,89.49
2019-02-06T00:45:48.732Z,89.65
2019-02-06T00:48:55.338Z,89.85
2019-02-06T00:52:03.742Z,89.79
2019-02-06T00:55:10.396Z,89.97
2019-02-06T00:58:16.878Z,89.40
2019-02-06T01:01:23.580Z,89.44
2019-02-06T01:04:29.792Z,90.06
2019-02-06T01:07:36.387Z,89.90
2019-02-06T01:10:42.748Z,89.27
2019-02-06T01:13:49.357Z,89.38
2019-02-06T01:16:56.046Z,89.97
2019-02-06T01:20:02.266Z,90.06
2019-02-06T01:23:09.576Z,90.38
2019-02-06T01:26:15.793Z,89.82
2019-02-06T01:29:24.168Z,90.78
2019-02-06T01:32:30.559Z,90.86
2019-02-06T01:35:37.203Z,90.71
2019-02-06T01:38:44.142Z,90.50
2019-02-06T01:41:50.436Z,90.53
2019-02-06T01:44:57.459Z,90.36
2019-02-06T01:48:03.884Z,90.11
2019-02-06T01:51:10.375Z,90.50
2019-02-06T01:54:17.081Z,90.63
2019-02-06T01:57:23.497Z,90.03
2019-02-06T02:00:30.268Z,89.51
2019-02-06T02:03:37.785Z,89.51
2019-02-06T02:06:44.224Z,89.42
2019-02-06T02:09:50.959Z,89.64
2019-02-06T02:12:57.471Z,90.36
2019-02-06T02:16:04.049Z,90.22
2019-02-06T02:19:10.418Z,90.42
2019-02-06T02:22:16.948Z,90.12
2019-02-06T02:25:24.065Z,89.90
2019-02-06T02:28:30.626Z,89.75
2019-02-06T02:31:37.619Z,89.83
2019-02-06T02:34:44.053Z,89.63
2019-02-06T02:37:51.685Z,89.80
2019-02-06T02:40:59.267Z,89.69
2019-02-06T02:44:05.775Z,89.41
2019-02-06T02:47:13.033Z,89.48
2019-02-06T02:50:19.670Z,89.35
2019-02-06T02:53:26.365Z,89.73
2019-02-06T02:56:32.996Z,90.36
2019-02-06T02:59:39.951Z,89.96
2019-02-06T03:02:55.216Z,89.73
2019-02-06T03:06:01.754Z,90.23
2019-02-06T03:09:12.539Z,90.14
2019-02-06T03:12:20.203Z,89.98
2019-02-06T03:15:28.919Z,89.96
2019-02-06T03:18:35.485Z,89.58
2019-02-06T03:21:42.731Z,89.69
2019-02-06T03:24:48.817Z,89.36
2019-02-06T03:27:55.186Z,89.59
2019-02-06T03:31:01.723Z,89.83
2019-02-06T03:34:08.022Z,90.30
2019-02-06T03:37:14.799Z,90.41
2019-02-06T03:40:21.363Z,90.60
2019-02-06T03:43:27.864Z,90.20
2019-02-06T03:46:35.362Z,89.80
2019-02-06T03:49:42.801Z,89.77
2019-02-06T03:52:50.172Z,89.96
2019-02-06T03:55:56.646Z,89.88
2019-02-06T03:59:03.302Z,89.41
2019-02-06T04:02:10.259Z,89.22
2019-02-06T04:05:16.779Z,88.82
2019-02-06T04:08:23.236Z,89.69
2019-02-06T04:11:29.918Z,89.60
2019-02-06T04:14:36.325Z,89.39
2019-02-06T04:17:42.904Z,89.46
2019-02-06T04:20:49.335Z,89.95
2019-02-06T04:23:56.610Z,90.41
2019-02-06T04:27:03.465Z,90.26
2019-02-06T04:30:11.122Z,89.55
2019-02-06T04:33:17.338Z,89.48
2019-02-06T04:36:23.908Z,89.84
2019-02-06T04:39:30.448Z,89.71
2019-02-06T04:42:37.313Z,89.82
2019-02-06T04:45:44.568Z,89.95
2019-02-06T04:48:51.015Z,89.96
2019-02-06T04:51:57.651Z,89.95
2019-02-06T04:55:04.456Z,89.65
2019-02-06T04:58:11.009Z,89.73
2019-02-06T05:01:17.397Z,89.62
2019-02-06T05:04:23.802Z,89.26
2019-02-06T05:07:30.214Z,89.39
2019-02-06T05:10:36.554Z,89.74
2019-02-06T05:13:43.692Z,90.08
2019-02-06T05:16:50.352Z,89.89
2019-02-06T05:19:57.647Z,90.18
2019-02-06T05:23:04.205Z,90.20
2019-02-06T05:26:11.327Z,89.77
2019-02-06T05:29:18.076Z,89.81
2019-02-06T05:32:24.646Z,90.12
2019-02-06T05:35:32.304Z,89.95
2019-02-06T05:38:38.443Z,89.90
2019-02-06T05:41:44.944Z,89.70
2019-02-06T05:44:51.575Z,89.84
2019-02-06T05:47:59.088Z,89.74
2019-02-06T05:51:06.254Z,89.53
2019-02-06T05:54:12.539Z,89.89
2019-02-06T05:57:19.086Z,89.99
2019-02-06T06:00:30.878Z,89.81
2019-02-06T06:03:37.574Z,89.77
2019-02-06T06:06:44.155Z,89.65
2019-02-06T06:09:50.880Z,89.93
2019-02-06T06:12:58.390Z,90.18
2019-02-06T06:16:05.044Z,90.12
2019-02-06T06:19:11.869Z,90.01
2019-02-06T06:22:18.379Z,89.92
2019-02-06T06:25:25.198Z,89.90
2019-02-06T06:28:31.502Z,89.71
2019-02-06T06:31:38.203Z,89.83
2019-02-06T06:34:44.879Z,89.79
2019-02-06T06:37:59.390Z,89.80
2019-02-06T06:40:59.961Z,90.07
2019-02-06T06:44:06.893Z,89.99
2019-02-06T06:47:13.810Z,89.94
2019-02-06T06:50:22.425Z,90.01
2019-02-06T06:53:28.909Z,89.85
2019-02-06T06:56:36.173Z,89.73
2019-02-06T06:59:42.699Z,89.87
2019-02-06T07:02:49.076Z,89.94
2019-02-06T07:05:56.013Z,89.81
2019-02-06T07:09:02.480Z,90.04
2019-02-06T07:12:10.502Z,89.73
2019-02-06T07:15:19.448Z,89.45
2019-02-06T07:18:26.174Z,89.01
2019-02-06T07:21:33.937Z,88.89
2019-02-06T07:24:42.179Z,88.74
2019-02-06T07:27:49.190Z,88.82
2019-02-06T07:30:55.957Z,89.40
2019-02-06T07:34:03.003Z,89.12
2019-02-06T07:37:09.707Z,88.76
2019-02-06T07:40:17.006Z,88.94
2019-02-06T07:43:24.014Z,88.86
2019-02-06T07:46:30.792Z,89.06
2019-02-06T07:49:37.512Z,89.49
2019-02-06T07:52:44.350Z,89.36
2019-02-06T07:55:51.181Z,89.16
2019-02-06T07:58:58.107Z,88.68
2019-02-06T08:02:04.602Z,88.64
2019-02-06T08:05:13.503Z,88.29
2019-02-06T08:08:19.879Z,88.38
2019-02-06T08:11:26.129Z,88.45
2019-02-06T08:14:32.774Z,88.22
2019-02-06T08:17:39.278Z,88.57
2019-02-06T08:20:45.555Z,88.31
2019-02-06T08:23:53.336Z,88.41
2019-02-06T08:26:59.825Z,88.43
2019-02-06T08:30:09.722Z,88.04
2019-02-06T08:33:16.122Z,87.63
2019-02-06T08:36:22.950Z,87.88
2019-02-06T08:39:29.671Z,87.48
2019-02-06T08:42:36.231Z,87.24
2019-02-06T08:45:42.599Z,87.13
2019-02-06T08:48:49.092Z,86.80
2019-02-06T08:51:55.430Z,86.84
2019-02-06T08:55:01.707Z,86.69
2019-02-06T08:58:08.924Z,86.50
2019-02-06T09:01:15.098Z,86.69
2019-02-06T09:04:21.876Z,86.35
2019-02-06T09:07:28.361Z,85.36
2019-02-06T09:10:35.031Z,85.28
2019-02-06T09:13:41.893Z,84.77
2019-02-06T09:16:48.258Z,85.15
2019-02-06T09:19:54.870Z,85.12
2019-02-06T09:23:01.547Z,85.43
2019-02-06T09:26:08.838Z,85.44
2019-02-06T09:29:15.887Z,85.06
2019-02-06T09:32:22.890Z,84.81
2019-02-06T09:35:29.696Z,85.00
2019-02-06T09:38:37.983Z,84.18
2019-02-06T09:41:45.204Z,84.98
2019-02-06T09:44:51.750Z,83.94
2019-02-06T09:47:58.114Z,83.16
2019-02-06T09:51:04.872Z,83.18
2019-02-06T09:54:12.379Z,83.04
2019-02-06T09:57:18.870Z,83.58
2019-02-06T10:00:31.218Z,83.05
2019-02-06T10:03:38.680Z,82.46
2019-02-06T10:06:45.532Z,82.20
2019-02-06T10:09:52.328Z,81.33
2019-02-06T10:13:00.304Z,80.21
2019-02-06T10:16:07.450Z,79.50
2019-02-06T10:19:14.191Z,79.32
2019-02-06T10:22:20.434Z,80.03
2019-02-06T10:25:27.031Z,78.35
2019-02-06T10:28:33.684Z,77.30
2019-02-06T10:31:40.028Z,76.71
2019-02-06T10:34:46.602Z,75.39
2019-02-06T10:37:53.388Z,75.48
2019-02-06T10:41:00.487Z,74.02
2019-02-06T10:44:07.740Z,70.46
2019-02-06T10:47:14.450Z,70.65
2019-02-06T10:50:23.105Z,70.10
2019-02-06T10:53:29.371Z,68.87
2019-02-06T10:56:37.076Z,67.89
2019-02-06T10:59:44.306Z,65.78
2019-02-06T11:02:51.667Z,67.26
2019-02-06T11:05:58.275Z,65.24
2019-02-06T11:09:07.050Z,64.04
2019-02-06T11:12:15.296Z,64.34
2019-02-06T11:15:22.486Z,63.21
2019-02-06T11:18:29.410Z,64.98
2019-02-06T11:21:38.540Z,64.11
2019-02-06T11:24:45.511Z,64.91
2019-02-06T11:27:52.139Z,60.93
2019-02-06T11:30:59.030Z,61.94
2019-02-06T11:34:06.032Z,63.91
2019-02-06T11:37:12.691Z,63.51
2019-02-06T11:40:21.633Z,62.01
2019-02-06T11:43:28.210Z,62.26
2019-02-06T11:46:35.342Z,61.32
2019-02-06T11:49:43.789Z,62.31
2019-02-06T11:52:50.416Z,54.67
2019-02-06T11:55:57.465Z,52.95
2019-02-06T11:59:04.302Z,52.95
2019-02-06T12:02:11.472Z,54.74
2019-02-06T12:05:18.327Z,50.35
2019-02-06T12:08:24.972Z,50.66
2019-02-06T12:11:31.443Z,52.50
2019-02-06T12:14:37.735Z,55.53
2019-02-06T12:17:44.575Z,58.37
2019-02-06T12:20:51.243Z,50.77
2019-02-06T12:23:57.675Z,52.46
2019-02-06T12:27:04.868Z,57.50
2019-02-06T12:30:18.748Z,53.09
2019-02-06T12:33:25.973Z,49.54
2019-02-06T12:36:32.911Z,48.64
2019-02-06T12:39:39.814Z,48.06
2019-02-06T12:42:46.275Z,49.51
2019-02-06T12:45:53.055Z,48.44
2019-02-06T12:49:00.023Z,48.86
2019-02-06T12:52:07.213Z,46.70
2019-02-06T12:55:19.618Z,46.63
2019-02-06T12:58:26.329Z,52.00
2019-02-06T13:01:36.546Z,52.81
2019-02-06T13:04:42.912Z,52.71
2019-02-06T13:07:50.847Z,51.31
2019-02-06T13:10:57.806Z,52.09
2019-02-06T13:14:04.932Z,50.94
2019-02-06T13:17:12.676Z,51.61
2019-02-06T13:20:24.269Z,52.86
2019-02-06T13:23:30.916Z,53.19
2019-02-06T13:26:38.287Z,50.60
2019-02-06T13:29:45.256Z,50.92
2019-02-06T13:32:51.732Z,51.81
2019-02-06T13:35:58.467Z,51.70
2019-02-06T13:39:08.020Z,49.32
2019-02-06T13:42:15.031Z,50.46
2019-02-06T13:45:24.252Z,49.23
2019-02-06T13:48:33.660Z,48.70
2019-02-06T13:51:39.414Z,50.17
2019-02-06T13:54:45.888Z,48.33
2019-02-06T13:57:52.492Z,47.06
2019-02-06T14:00:59.284Z,48.80
2019-02-06T14:04:05.923Z,48.73
2019-02-06T14:07:12.343Z,49.24
2019-02-06T14:10:22.673Z,51.05
2019-02-06T14:13:29.300Z,49.96
2019-02-06T14:16:36.252Z,50.99
2019-02-06T14:19:42.749Z,51.24
2019-02-06T14:23:01.628Z,50.12
2019-02-06T14:26:19.910Z,52.64
2019-02-06T14:30:02.066Z,53.12
2019-02-06T14:33:42.776Z,51.57
2019-02-06T14:37:27.583Z,50.55
2019-02-06T14:41:08.153Z,54.41
2019-02-06T14:44:58.803Z,55.86
2019-02-06T14:48:34.350Z,54.03
2019-02-06T14:52:11.498Z,52.62
2019-02-06T14:55:30.333Z,53.15
2019-02-06T14:59:16.546Z,55.26
2019-02-06T15:03:16.538Z,56.64
2019-02-06T15:07:01.487Z,58.04
2019-02-06T15:10:32.320Z,59.65
2019-02-06T15:14:32.378Z,59.12
2019-02-06T15:18:08.413Z,59.97
2019-02-06T15:21:50.329Z,60.25
2019-02-06T15:25:39.405Z,60.17
2019-02-06T15:29:41.810Z,62.19
2019-02-06T15:33:37.463Z,62.07
2019-02-06T15:37:24.385Z,63.78
2019-02-06T15:40:51.564Z,64.88
2019-02-06T15:44:24.512Z,67.90
2019-02-06T15:47:43.681Z,69.31
2019-02-06T15:51:46.738Z,69.28
2019-02-06T15:55:37.955Z,69.86
2019-02-06T15:59:09.133Z,71.82
2019-02-06T16:02:51.072Z,72.39
2019-02-06T16:06:32.427Z,72.72
2019-02-06T16:10:27.356Z,73.52
2019-02-06T16:13:57.975Z,75.17
2019-02-06T16:17:52.771Z,75.96
2019-02-06T16:21:38.775Z,76.49
2019-02-06T16:25:22.027Z,77.81
2019-02-06T16:29:03.818Z,77.64
2019-02-06T16:32:28.744Z,77.45
2019-02-06T16:36:19.240Z,78.62
2019-02-06T16:39:36.974Z,78.48
2019-02-06T16:43:18.853Z,78.02
2019-02-06T16:47:21.343Z,80.11
2019-02-06T16:51:14.730Z,80.10
2019-02-06T16:54:47.734Z,80.05
2019-02-06T16:58:45.176Z,81.66
2019-02-06T17:02:22.324Z,81.32
2019-02-06T17:05:57.675Z,81.16
2019-02-06T17:09:43.902Z,82.14
2019-02-06T17:13:49.376Z,81.79
2019-02-06T17:17:08.060Z,82.60
2019-02-06T17:20:55.337Z,83.05
2019-02-06T17:24:42.279Z,83.17
2019-02-06T17:28:14.140Z,82.16
2019-02-06T17:32:03.111Z,82.63
2019-02-06T17:35:55.868Z,82.20
2019-02-06T17:39:40.543Z,82.56
2019-02-06T17:43:04.474Z,83.45
2019-02-06T17:46:57.235Z,82.78
2019-02-06T17:50:32.851Z,82.83
2019-02-06T17:54:38.869Z,83.27
2019-02-06T17:57:45.845Z,82.78
2019-02-06T18:01:08.044Z,83.26
2019-02-06T18:04:30.046Z,83.05
2019-02-06T18:07:37.025Z,83.64
2019-02-06T18:10:44.217Z,83.51
2019-02-06T18:13:53.103Z,82.84
2019-02-06T18:16:59.766Z,82.99
2019-02-06T18:20:09.250Z,83.46
2019-02-06T18:23:16.099Z,82.27
2019-02-06T18:26:22.729Z,82.81
2019-02-06T18:29:29.783Z,83.11
2019-02-06T18:32:37.234Z,84.14
2019-02-06T18:35:44.317Z,83.94
2019-02-06T18:38:52.310Z,83.74
2019-02-06T18:42:00.005Z,83.44
2019-02-06T18:45:09.562Z,83.49
2019-02-06T18:48:16.677Z,83.16
2019-02-06T18:51:24.037Z,83.11
2019-02-06T18:54:30.607Z,84.29
2019-02-06T18:57:38.226Z,84.42
2019-02-06T19:00:44.848Z,83.67
2019-02-06T19:03:51.891Z,83.69
2019-02-06T19:06:58.988Z,83.42
2019-02-06T19:10:08.136Z,84.19
2019-02-06T19:13:15.613Z,84.01
2019-02-06T19:16:22.423Z,83.48
2019-02-06T19:19:31.754Z,83.33
2019-02-06T19:22:38.795Z,84.02
2019-02-06T19:25:45.258Z,84.39
2019-02-06T19:28:52.359Z,83.79
2019-02-06T19:31:59.329Z,83.88
2019-02-06T19:35:07.632Z,83.72
2019-02-06T19:38:14.592Z,83.87
2019-02-06T19:41:22.159Z,84.10
2019-02-06T19:44:28.964Z,84.64
2019-02-06T19:47:35.695Z,84.50
2019-02-06T19:50:42.952Z,83.34
2019-02-06T19:53:54.849Z,84.68
2019-02-06T19:57:01.933Z,85.35
2019-02-06T20:00:11.066Z,84.62
2019-02-06T20:03:18.148Z,83.69
2019-02-06T20:06:32.936Z,84.43
2019-02-06T20:09:39.871Z,85.16
2019-02-06T20:12:47.836Z,84.79
2019-02-06T20:15:55.041Z,85.08
2019-02-06T20:19:01.555Z,84.96
2019-02-06T20:22:08.996Z,84.84
2019-02-06T20:25:15.943Z,85.30
2019-02-06T20:28:22.683Z,84.92
2019-02-06T20:31:29.681Z,84.58
2019-02-06T20:34:36.951Z,84.71
2019-02-06T20:37:43.748Z,85.12
2019-02-06T20:40:51.724Z,84.21
2019-02-06T20:43:58.656Z,84.78
2019-02-06T20:47:05.328Z,85.17
2019-02-06T20:50:16.217Z,84.90
2019-02-06T20:53:23.141Z,84.92
2019-02-06T20:56:30.365Z,84.45
2019-02-06T20:59:37.457Z,84.64
2019-02-06T21:02:43.967Z,85.00
2019-02-06T21:05:50.485Z,85.49
2019-02-06T21:08:57.114Z,84.61
2019-02-06T21:12:03.963Z,84.94
2019-02-06T21:15:11.917Z,84.38
2019-02-06T21:18:18.788Z,85.23
2019-02-06T21:21:25.715Z,84.98
2019-02-06T21:24:32.669Z,84.92
2019-02-06T21:27:40.330Z,85.23
2019-02-06T21:30:47.915Z,85.03
2019-02-06T21:33:54.971Z,85.64
2019-02-06T21:37:01.650Z,84.82
2019-02-06T21:40:14.616Z,85.40
2019-02-06T21:43:21.317Z,85.34
2019-02-06T21:46:28.242Z,84.87
2019-02-06T21:49:35.439Z,85.16
2019-02-06T21:52:42.270Z,85.57
2019-02-06T21:55:52.487Z,84.68
2019-02-06T21:58:59.283Z,85.25
2019-02-06T22:02:06.050Z,85.89
2019-02-06T22:05:14.389Z,85.96
2019-02-06T22:08:22.207Z,85.65
2019-02-06T22:11:28.939Z,85.88
2019-02-06T22:14:35.440Z,85.31
2019-02-06T22:17:43.957Z,85.57
2019-02-06T22:20:52.955Z,85.66
2019-02-06T22:23:59.318Z,85.58
2019-02-06T22:27:05.717Z,86.19
2019-02-06T22:30:24.668Z,85.89
2019-02-06T22:33:31.560Z,85.92
2019-02-06T22:36:38.712Z,85.72
2019-02-06T22:39:45.396Z,86.03
2019-02-06T22:42:52.352Z,86.02
2019-02-06T22:45:59.441Z,86.07
2019-02-06T22:49:06.507Z,85.90
2019-02-06T22:52:12.786Z,86.02
2019-02-06T22:55:19.196Z,86.26
2019-02-06T22:58:25.870Z,86.33
2019-02-06T23:01:43.831Z,85.65
2019-02-06T23:04:50.451Z,86.13
2019-02-06T23:07:57.893Z,85.68
2019-02-06T23:11:04.716Z,85.39
2019-02-06T23:14:17.519Z,84.99
2019-02-06T23:17:20.041Z,81.38
2019-02-06T23:20:28.863Z,82.22
2019-02-06T23:23:35.347Z,81.08
2019-02-06T23:26:41.715Z,76.39
2019-02-06T23:29:48.255Z,74.34
2019-02-06T23:32:54.884Z,64.81
2019-02-06T23:36:01.386Z,62.18
2019-02-06T23:39:15.676Z,61.43
2019-02-06T23:42:22.220Z,62.61
2019-02-06T23:45:28.771Z,63.30
2019-02-06T23:48:35.705Z,63.77
2019-02-06T23:51:42.336Z,61.57
2019-02-06T23:54:49.308Z,58.74
2019-02-06T23:57:56.529Z,60.32
